Terminal Aerodrome Forecast
Issued by NWS

Current Version | Previous Version | Graphics & Text | Print | Product List | Glossary On
Versions: 1 2 3 4 5 6 7 8 9 10 11 12 13 14 15 16 17 18 19 20 21 22
870
FTUS41 KILN 150856 AAA
TAFLUK
TAF AMD
KLUK 150856Z 1509/1606 21012G20KT P6SM FEW020 BKN100 WS020/23040KT
     FM151400 22014G26KT P6SM VCSH BKN060
     FM151600 25016G26KT P6SM VCSH OVC035
      TEMPO 1517/1519 5SM -SHRA BKN025
     FM151900 29014G24KT P6SM OVC035
     FM160100 32012KT P6SM BKN060=

USA.gov is the U.S. government's official web portal to all federal, state and local government web resources and services.